Time;durP1;ratioP1;P1;durP2;ratioP2;P2;SDS_P1;SDS_P2;PMS_P1;PMS_P2;Temp;Humidity;BMP_temperature;BMP_pressure;BME280_temperature;BME280_humidity;BME280_pressure;Samples;Min_cycle;Max_cycle;Signal;HPM_P1;HPM_P2
2021/01/09 00:00:42;;;;;;;29.77;15.15;;;2.70;99.90;;;;;;5025497;28;20539;-78
2021/01/09 00:03:08;;;;;;;28.98;14.85;;;2.70;99.90;;;;;;5026700;28;20052;-77
2021/01/09 00:05:33;;;;;;;25.40;13.90;;;2.70;99.90;;;;;;5025993;28;20033;-78
2021/01/09 00:07:59;;;;;;;34.03;15.32;;;2.70;99.90;;;;;;5021954;28;20411;-80
2021/01/09 00:10:24;;;;;;;25.42;13.90;;;2.70;99.90;;;;;;5025449;28;20410;-80
2021/01/09 00:12:50;;;;;;;25.13;13.80;;;2.70;99.90;;;;;;5025846;28;20132;-78
2021/01/09 00:15:15;;;;;;;27.90;13.75;;;2.60;99.90;;;;;;5006156;28;20789;-81
2021/01/09 00:17:41;;;;;;;26.83;14.90;;;2.70;99.90;;;;;;5026573;28;20037;-80
2021/01/09 00:20:11;;;;;;;27.00;13.38;;;2.70;99.90;;;;;;5025384;28;20041;-80
2021/01/09 00:22:37;;;;;;;28.05;15.38;;;2.70;99.90;;;;;;5023273;28;20107;-78
2021/01/09 00:25:06;;;;;;;28.58;15.93;;;2.60;99.90;;;;;;5024359;28;20080;-79
2021/01/09 00:27:31;;;;;;;29.00;14.88;;;2.60;99.90;;;;;;5028185;28;20091;-80
2021/01/09 00:29:57;;;;;;;26.73;14.30;;;2.60;99.90;;;;;;5026071;28;20168;-78
2021/01/09 00:32:22;;;;;;;26.38;13.77;;;2.60;99.90;;;;;;5029814;28;20029;-81
2021/01/09 00:34:48;;;;;;;27.02;14.75;;;2.60;99.90;;;;;;5031832;28;20064;-78
2021/01/09 00:37:16;;;;;;;27.42;15.15;;;2.60;99.90;;;;;;5031006;28;20053;-80
2021/01/09 00:39:45;;;;;;;30.13;14.55;;;2.50;99.90;;;;;;5024060;28;20037;-77
2021/01/09 00:42:10;;;;;;;26.20;14.07;;;2.50;99.90;;;;;;5044310;28;20040;-78
2021/01/09 00:44:36;;;;;;;28.83;15.45;;;2.40;99.90;;;;;;5029768;28;20057;-79
2021/01/09 00:47:01;;;;;;;28.00;15.30;;;2.50;99.90;;;;;;5030904;28;20033;-78
2021/01/09 00:49:27;;;;;;;26.55;15.00;;;2.50;99.90;;;;;;5010353;28;20156;-79
2021/01/09 00:51:54;;;;;;;28.15;14.48;;;2.50;99.90;;;;;;5014818;28;20458;-78
2021/01/09 00:54:20;;;;;;;28.33;14.60;;;2.40;99.90;;;;;;5027106;28;20041;-79
2021/01/09 00:56:45;;;;;;;30.23;15.80;;;2.90;99.90;;;;;;5007177;28;20045;-78
2021/01/09 00:59:11;;;;;;;27.27;15.60;;;2.50;99.90;;;;;;5024679;28;20056;-78
2021/01/09 01:01:38;;;;;;;30.33;14.82;;;2.50;99.90;;;;;;5024210;28;20105;-78
2021/01/09 01:04:03;;;;;;;29.45;15.48;;;2.50;99.90;;;;;;5030708;28;20371;-78
2021/01/09 01:06:29;;;;;;;29.85;15.23;;;;;;;;;;5025084;28;20045;-78
2021/01/09 01:08:55;;;;;;;29.00;15.07;;;2.50;99.90;;;;;;5028373;28;20491;-78
2021/01/09 01:11:27;;;;;;;30.10;14.90;;;2.50;99.90;;;;;;5031464;28;20041;-79
2021/01/09 01:13:53;;;;;;;30.00;14.73;;;2.50;99.90;;;;;;5026533;28;20555;-79
2021/01/09 01:16:20;;;;;;;27.58;14.48;;;2.50;99.90;;;;;;5032060;28;20041;-78
2021/01/09 01:18:46;;;;;;;27.50;14.43;;;2.50;99.90;;;;;;5028817;28;20461;-81
2021/01/09 01:21:11;;;;;;;26.90;13.60;;;2.50;99.90;;;;;;5030924;28;20033;-78
2021/01/09 01:23:37;;;;;;;26.70;15.20;;;2.50;99.90;;;;;;5031571;28;20479;-78
2021/01/09 01:26:03;;;;;;;29.88;14.88;;;2.50;99.90;;;;;;5029742;28;20034;-79
2021/01/09 01:28:29;;;;;;;28.75;14.50;;;2.40;99.90;;;;;;5028163;28;20131;-78
2021/01/09 01:30:55;;;;;;;26.17;14.45;;;2.50;99.90;;;;;;5030726;28;20114;-79
2021/01/09 01:33:20;;;;;;;28.42;15.40;;;2.40;99.90;;;;;;5028160;28;20649;-79
2021/01/09 01:35:48;;;;;;;28.10;14.85;;;2.40;99.90;;;;;;5022039;28;20040;-79
2021/01/09 01:38:14;;;;;;;29.38;14.98;;;2.40;99.90;;;;;;5029703;28;20041;-80
2021/01/09 01:40:40;;;;;;;29.05;14.77;;;2.30;99.90;;;;;;5029449;28;20033;-81
2021/01/09 01:43:13;;;;;;;28.27;14.73;;;2.30;99.90;;;;;;5027857;28;20495;-80
2021/01/09 01:45:39;;;;;;;27.02;13.88;;;2.30;99.90;;;;;;5031353;28;20034;-81
2021/01/09 01:48:07;;;;;;;30.98;15.55;;;2.30;99.90;;;;;;5027263;28;20447;-77
2021/01/09 01:50:33;;;;;;;31.95;16.17;;;2.30;99.90;;;;;;5027803;28;20063;-78
2021/01/09 01:52:59;;;;;;;32.63;15.73;;;2.30;99.90;;;;;;5019555;28;20038;-79
2021/01/09 01:55:26;;;;;;;31.52;17.02;;;;;;;;;;5019239;28;20038;-80
2021/01/09 01:57:52;;;;;;;32.22;16.52;;;;;;;;;;5014049;28;20033;-79
2021/01/09 02:00:24;;;;;;;31.00;15.93;;;2.30;99.90;;;;;;5020183;28;20573;-80
2021/01/09 02:02:53;;;;;;;30.83;15.95;;;2.30;99.90;;;;;;5021497;28;20040;-79
2021/01/09 02:05:23;;;;;;;34.17;16.52;;;2.30;99.90;;;;;;5025733;28;20074;-81
2021/01/09 02:07:52;;;;;;;35.47;16.55;;;2.30;99.90;;;;;;5031443;28;20072;-80
2021/01/09 02:10:21;;;;;;;35.85;18.75;;;2.30;99.90;;;;;;5021273;28;20042;-81
2021/01/09 02:12:54;;;;;;;34.10;17.13;;;2.40;99.90;;;;;;5020209;28;20109;-83
2021/01/09 02:15:20;;;;;;;31.17;17.15;;;2.30;99.90;;;;;;5026315;28;20049;-81
2021/01/09 02:17:46;;;;;;;32.90;16.48;;;2.30;99.90;;;;;;5032937;28;20041;-82
2021/01/09 02:20:13;;;;;;;35.70;17.55;;;2.30;99.90;;;;;;5029273;28;20045;-81
2021/01/09 02:22:45;;;;;;;30.67;16.10;;;2.30;99.90;;;;;;5015931;28;20069;-81
2021/01/09 02:25:11;;;;;;;29.40;16.45;;;2.30;99.90;;;;;;5010046;28;20042;-81
2021/01/09 02:27:38;;;;;;;29.95;15.25;;;2.30;99.90;;;;;;5039088;28;20493;-78
2021/01/09 02:30:07;;;;;;;34.20;14.98;;;2.20;99.90;;;;;;5032027;28;20067;-81
2021/01/09 02:32:50;;;;;;;29.63;14.75;;;2.40;99.90;;;;;;5033523;28;20048;-81
2021/01/09 02:35:16;;;;;;;29.85;16.17;;;;;;;;;;5030394;28;20069;-83
2021/01/09 02:37:45;;;;;;;28.75;15.07;;;2.20;99.90;;;;;;5029316;28;20060;-81
2021/01/09 02:40:16;;;;;;;31.05;16.30;;;2.30;99.90;;;;;;5010429;28;20065;-81
2021/01/09 02:42:42;;;;;;;;;;;2.30;99.90;;;;;;5033368;28;20080;-84
2021/01/09 02:45:08;;;;;;;28.25;15.20;;;2.30;99.90;;;;;;5029851;28;20388;-80
2021/01/09 02:47:34;;;;;;;31.80;17.05;;;2.30;99.90;;;;;;5027547;28;20128;-81
2021/01/09 02:50:00;;;;;;;35.58;17.83;;;2.20;99.90;;;;;;5038175;28;20113;-81
2021/01/09 02:52:25;;;;;;;28.40;15.93;;;2.20;99.90;;;;;;5029691;28;20092;-81
2021/01/09 02:54:51;;;;;;;35.65;18.80;;;2.20;99.90;;;;;;5029022;28;20049;-81
2021/01/09 02:57:17;;;;;;;34.13;17.30;;;2.20;99.90;;;;;;5034165;28;20640;-81
2021/01/09 02:59:42;;;;;;;28.80;15.35;;;2.20;99.90;;;;;;5004896;28;20041;-82
2021/01/09 03:02:08;;;;;;;33.72;18.23;;;2.20;99.90;;;;;;5030557;28;20503;-80
2021/01/09 03:04:34;;;;;;;30.88;17.02;;;2.20;99.90;;;;;;4989911;28;20041;-82
2021/01/09 03:06:59;;;;;;;30.17;16.00;;;2.10;99.90;;;;;;5028312;28;20868;-81
2021/01/09 03:09:26;;;;;;;35.55;17.48;;;2.10;99.90;;;;;;5026553;28;20044;-79
2021/01/09 03:11:52;;;;;;;31.88;16.60;;;2.10;99.90;;;;;;5008649;28;20517;-82
2021/01/09 03:14:17;;;;;;;33.55;18.10;;;2.10;99.90;;;;;;5030221;28;20033;-81
2021/01/09 03:16:43;;;;;;;31.60;16.23;;;2.10;99.90;;;;;;5030204;28;20037;-81
2021/01/09 03:19:09;;;;;;;28.98;15.55;;;2.10;99.90;;;;;;5028815;28;20045;-82
2021/01/09 03:21:35;;;;;;;27.40;14.63;;;2.20;99.90;;;;;;5022800;28;20399;-80
2021/01/09 03:24:01;;;;;;;28.83;15.68;;;2.20;99.90;;;;;;5030193;28;20045;-81
2021/01/09 03:26:27;;;;;;;28.33;14.65;;;2.20;99.90;;;;;;5026786;28;20060;-80
2021/01/09 03:28:53;;;;;;;26.90;13.82;;;2.40;99.90;;;;;;5009816;28;20042;-81
2021/01/09 03:31:19;;;;;;;24.70;13.07;;;2.20;99.90;;;;;;5024302;28;20095;-83
2021/01/09 03:33:45;;;;;;;25.27;13.75;;;2.20;99.90;;;;;;5028932;28;20025;-82
2021/01/09 03:36:10;;;;;;;24.25;12.70;;;2.30;99.90;;;;;;5033813;28;20034;-81
2021/01/09 03:38:37;;;;;;;22.55;12.65;;;2.30;99.90;;;;;;5027723;28;20135;-82
2021/01/09 03:41:03;;;;;;;22.35;12.75;;;2.30;99.90;;;;;;4998089;28;20048;-77
2021/01/09 03:43:29;;;;;;;24.15;13.57;;;2.30;99.90;;;;;;5026660;28;20453;-81
2021/01/09 03:45:54;;;;;;;21.35;11.88;;;2.30;99.90;;;;;;5027954;28;20121;-80
2021/01/09 03:48:20;;;;;;;21.63;12.60;;;2.20;99.90;;;;;;5024095;28;20045;-79
2021/01/09 03:50:46;;;;;;;22.20;12.00;;;2.20;99.90;;;;;;5026739;28;20522;-81
2021/01/09 03:53:11;;;;;;;25.77;13.13;;;2.20;99.90;;;;;;5028401;28;20026;-82
2021/01/09 03:55:37;;;;;;;28.02;14.70;;;2.10;99.90;;;;;;5026650;28;20033;-82
2021/01/09 03:58:03;;;;;;;29.38;15.18;;;2.10;99.90;;;;;;5025678;28;20609;-83
2021/01/09 04:00:28;;;;;;;31.60;16.05;;;2.10;99.90;;;;;;5029261;28;20128;-81
2021/01/09 04:02:54;;;;;;;30.05;16.63;;;2.00;99.90;;;;;;5031513;28;20029;-81
2021/01/09 04:05:20;;;;;;;30.73;15.75;;;2.00;99.90;;;;;;5035033;28;20558;-82
2021/01/09 04:07:45;;;;;;;29.25;15.13;;;1.90;99.90;;;;;;5035895;28;20040;-81
2021/01/09 04:10:11;;;;;;;28.70;15.88;;;1.90;99.90;;;;;;5035674;28;20045;-82
2021/01/09 04:12:37;;;;;;;29.95;15.35;;;1.90;99.90;;;;;;5030573;28;20056;-81
2021/01/09 04:15:04;;;;;;;28.30;14.98;;;1.80;99.90;;;;;;5034158;28;20495;-82
2021/01/09 04:17:30;;;;;;;31.63;14.98;;;1.80;99.90;;;;;;5039220;28;20065;-81
2021/01/09 04:19:55;;;;;;;30.90;15.10;;;1.80;99.90;;;;;;5018299;28;20069;-81
2021/01/09 04:22:21;;;;;;;33.60;16.40;;;1.80;99.90;;;;;;5028112;28;20048;-81
2021/01/09 04:24:47;;;;;;;32.67;16.00;;;;;;;;;;5036446;28;20037;-79
2021/01/09 04:27:14;;;;;;;33.70;16.73;;;;;;;;;;5035792;28;20044;-80
2021/01/09 04:29:40;;;;;;;30.92;15.60;;;1.70;99.90;;;;;;5033744;28;20049;-80
2021/01/09 04:32:06;;;;;;;31.67;16.40;;;1.70;99.90;;;;;;5029257;28;20469;-81
2021/01/09 04:34:31;;;;;;;31.70;16.40;;;1.60;99.90;;;;;;5035946;28;20084;-81
2021/01/09 04:36:57;;;;;;;31.85;15.85;;;;;;;;;;5035141;28;20029;-80
2021/01/09 04:39:23;;;;;;;31.20;16.17;;;1.50;99.90;;;;;;5035564;28;20112;-81
2021/01/09 04:41:49;;;;;;;30.02;15.20;;;1.50;99.90;;;;;;5038076;28;20100;-81
2021/01/09 04:44:15;;;;;;;32.78;16.52;;;1.40;99.90;;;;;;5032586;28;20076;-81
2021/01/09 04:46:52;;;;;;;31.80;16.27;;;1.40;99.90;;;;;;5035068;28;20026;-81
2021/01/09 04:49:19;;;;;;;30.88;15.80;;;1.30;99.90;;;;;;5030002;28;21823;-79
2021/01/09 04:51:46;;;;;;;30.30;15.45;;;1.30;99.90;;;;;;5035715;28;20129;-81
2021/01/09 04:54:20;;;;;;;31.08;15.50;;;1.30;99.90;;;;;;5034777;28;20080;-81
2021/01/09 04:56:48;;;;;;;29.63;13.52;;;1.20;99.90;;;;;;5036045;28;20036;-81
2021/01/09 04:59:15;;;;;;;24.65;13.65;;;1.20;99.90;;;;;;5009916;28;20042;-81
2021/01/09 05:01:42;;;;;;;23.95;13.48;;;1.20;99.90;;;;;;5021891;28;20395;-79
2021/01/09 05:04:09;;;;;;;24.92;13.15;;;1.20;99.90;;;;;;5035690;28;20070;-79
2021/01/09 05:06:35;;;;;;;22.92;12.25;;;1.10;99.90;;;;;;5040815;28;20075;-80
2021/01/09 05:09:01;;;;;;;25.17;13.05;;;1.10;99.90;;;;;;5037527;28;20037;-81
2021/01/09 05:11:31;;;;;;;26.10;12.98;;;1.10;99.90;;;;;;5016824;28;20052;-82
2021/01/09 05:13:58;;;;;;;24.90;12.45;;;1.10;99.90;;;;;;5035977;28;20151;-79
2021/01/09 05:16:25;;;;;;;28.83;12.80;;;1.00;99.90;;;;;;5028409;28;20055;-80
2021/01/09 05:18:51;;;;;;;24.92;12.18;;;1.00;99.90;;;;;;5036736;28;20098;-81
2021/01/09 05:21:17;;;;;;;26.58;13.18;;;2.30;99.90;;;;;;5035086;28;20738;-81
2021/01/09 05:23:53;;;;;;;23.73;12.90;;;1.00;99.90;;;;;;5029598;28;20192;-81
2021/01/09 05:26:19;;;;;;;25.13;12.60;;;1.00;99.90;;;;;;5033912;28;20577;-81
2021/01/09 05:28:50;;;;;;;25.23;11.82;;;1.10;99.90;;;;;;5028284;28;20037;-80
2021/01/09 05:31:17;;;;;;;27.30;13.10;;;1.10;99.90;;;;;;5032136;28;20406;-82
2021/01/09 05:33:43;;;;;;;23.55;12.43;;;1.10;99.90;;;;;;5028615;28;20030;-81
2021/01/09 05:36:10;;;;;;;24.58;12.63;;;1.10;99.90;;;;;;5022728;28;20105;-81
2021/01/09 05:38:37;;;;;;;23.70;12.10;;;1.10;99.90;;;;;;5040916;28;20064;-82
2021/01/09 05:41:05;;;;;;;27.15;13.60;;;1.20;99.90;;;;;;5031202;28;20025;-81
2021/01/09 05:43:31;;;;;;;24.92;11.77;;;1.20;99.90;;;;;;5033573;28;20518;-81
2021/01/09 05:46:02;;;;;;;21.42;11.02;;;1.30;99.90;;;;;;5026325;28;20034;-80
2021/01/09 05:48:29;;;;;;;18.30;10.77;;;1.30;99.90;;;;;;5020959;28;20038;-81
2021/01/09 05:50:56;;;;;;;18.85;10.63;;;1.30;99.90;;;;;;5026148;28;20131;-81
2021/01/09 05:53:37;;;;;;;21.83;11.00;;;1.40;99.90;;;;;;5026266;28;20033;-81
2021/01/09 05:56:04;;;;;;;20.48;10.75;;;1.40;99.90;;;;;;5023248;28;20325;-80
2021/01/09 05:58:30;;;;;;;17.50;9.02;;;1.40;99.90;;;;;;5028205;28;20057;-80
2021/01/09 06:00:58;;;;;;;15.77;8.93;;;1.50;99.90;;;;;;5023813;28;20033;-80
2021/01/09 06:03:34;;;;;;;15.02;8.48;;;1.50;99.90;;;;;;5026657;28;20032;-80
2021/01/09 06:06:04;;;;;;;15.98;8.15;;;1.60;99.90;;;;;;5036059;28;20091;-80
2021/01/09 06:08:32;;;;;;;14.17;8.43;;;1.60;99.90;;;;;;5024803;28;20026;-81
2021/01/09 06:11:07;;;;;;;15.68;7.80;;;1.60;99.90;;;;;;5021111;28;20041;-79
2021/01/09 06:13:35;;;;;;;17.55;8.93;;;1.60;99.90;;;;;;5028316;28;20038;-80
2021/01/09 06:16:05;;;;;;;15.60;8.23;;;1.70;99.90;;;;;;5009760;28;20045;-80
2021/01/09 06:18:32;;;;;;;14.38;7.28;;;1.70;99.90;;;;;;5031612;28;20037;-81
2021/01/09 06:20:58;;;;;;;15.30;8.20;;;1.70;99.90;;;;;;5027637;28;20053;-80
2021/01/09 06:23:24;;;;;;;14.98;7.90;;;1.70;99.90;;;;;;5023881;28;20590;-81
2021/01/09 06:25:51;;;;;;;17.33;8.13;;;1.60;99.90;;;;;;5041424;28;20133;-83
2021/01/09 06:28:23;;;;;;;18.13;8.95;;;1.60;99.90;;;;;;5026620;28;20037;-81
2021/01/09 06:30:53;;;;;;;17.40;8.52;;;1.60;99.90;;;;;;5026108;28;20045;-80
2021/01/09 06:33:23;;;;;;;16.45;8.68;;;1.60;99.90;;;;;;5024329;28;20029;-80
2021/01/09 06:35:54;;;;;;;16.88;9.25;;;1.60;99.90;;;;;;5029001;28;20048;-82
2021/01/09 06:38:20;;;;;;;17.15;8.85;;;1.60;99.90;;;;;;5033016;28;20029;-82
2021/01/09 06:40:46;;;;;;;15.32;8.35;;;1.60;99.90;;;;;;5013113;28;20509;-80
2021/01/09 06:43:13;;;;;;;15.70;8.95;;;1.60;99.90;;;;;;5033268;28;20036;-80
2021/01/09 06:45:42;;;;;;;16.88;9.40;;;1.60;99.90;;;;;;5031206;28;20041;-79
2021/01/09 06:48:11;;;;;;;17.05;9.13;;;1.60;99.90;;;;;;5030028;28;20428;-81
2021/01/09 06:50:37;;;;;;;15.73;8.68;;;1.50;99.90;;;;;;5025836;28;20128;-79
2021/01/09 06:53:04;;;;;;;16.63;9.40;;;1.60;99.90;;;;;;5023291;28;20134;-82
2021/01/09 06:55:36;;;;;;;17.27;8.57;;;1.50;99.90;;;;;;5029333;28;20545;-79
2021/01/09 06:58:08;;;;;;;17.10;8.95;;;1.50;99.90;;;;;;5027947;28;20109;-79
2021/01/09 07:00:35;;;;;;;17.17;9.80;;;1.50;99.90;;;;;;5031438;28;20087;-79
2021/01/09 07:03:17;;;;;;;16.35;9.48;;;1.50;99.90;;;;;;5037349;28;20028;-79
2021/01/09 07:05:51;;;;;;;17.10;8.88;;;1.50;99.90;;;;;;5027746;28;20026;-80
2021/01/09 07:08:30;;;;;;;15.32;8.57;;;1.60;99.90;;;;;;5033976;28;20087;-80
2021/01/09 07:10:58;;;;;;;17.15;9.23;;;1.50;99.90;;;;;;5030565;28;20026;-79
2021/01/09 07:13:24;;;;;;;16.95;9.18;;;1.60;99.90;;;;;;5031978;28;20037;-79
2021/01/09 07:16:10;;;;;;;16.55;8.93;;;1.60;99.90;;;;;;5026947;28;20087;-79
2021/01/09 07:18:41;;;;;;;17.83;10.13;;;1.60;99.90;;;;;;5026216;28;20029;-79
2021/01/09 07:21:09;;;;;;;17.90;9.70;;;2.10;99.90;;;;;;5025102;28;20037;-79
2021/01/09 07:23:37;;;;;;;17.17;9.63;;;1.60;99.90;;;;;;5028982;28;20059;-78
2021/01/09 07:26:03;;;;;;;17.45;9.68;;;1.60;99.90;;;;;;5026990;28;20083;-78
2021/01/09 07:28:34;;;;;;;17.88;9.50;;;1.60;99.90;;;;;;5030894;28;20025;-80
2021/01/09 07:31:05;;;;;;;20.90;10.10;;;1.60;99.90;;;;;;5023023;28;20039;-79
2021/01/09 07:33:33;;;;;;;18.05;9.80;;;1.60;99.90;;;;;;5033949;28;20047;-82
2021/01/09 07:36:00;;;;;;;19.77;10.18;;;1.50;99.90;;;;;;5046303;28;20167;-79
2021/01/09 07:38:26;;;;;;;19.67;10.95;;;1.40;99.90;;;;;;5029048;28;20049;-78
2021/01/09 07:40:58;;;;;;;22.48;10.93;;;1.40;99.90;;;;;;5031933;28;20033;-78
2021/01/09 07:43:46;;;;;;;19.70;10.55;;;1.40;99.90;;;;;;5044637;28;20060;-79
2021/01/09 07:46:32;;;;;;;20.60;10.35;;;1.50;99.90;;;;;;5025147;28;20045;-79
2021/01/09 07:49:03;;;;;;;22.45;10.73;;;1.50;99.90;;;;;;5030931;28;20064;-81
2021/01/09 07:51:48;;;;;;;18.55;9.80;;;1.50;99.90;;;;;;5029185;28;20115;-79
2021/01/09 07:54:33;;;;;;;18.05;9.50;;;1.50;99.90;;;;;;5029024;28;20041;-79
2021/01/09 07:56:58;;;;;;;18.83;9.18;;;1.50;99.90;;;;;;5038694;28;20526;-81
2021/01/09 07:59:24;;;;;;;20.40;10.32;;;1.50;99.90;;;;;;5029548;28;20064;-80
2021/01/09 08:01:50;;;;;;;21.10;10.90;;;1.50;99.90;;;;;;5032428;28;20037;-80
2021/01/09 08:04:15;;;;;;;21.48;10.65;;;1.50;99.90;;;;;;5016143;28;20030;-79
2021/01/09 08:06:41;;;;;;;20.52;10.98;;;1.60;99.90;;;;;;5031241;28;20032;-80
2021/01/09 08:09:09;;;;;;;17.35;9.25;;;1.60;99.90;;;;;;5035431;28;20067;-80
2021/01/09 08:11:45;;;;;;;23.13;9.73;;;1.60;99.90;;;;;;5032878;28;20033;-80
2021/01/09 08:14:12;;;;;;;19.52;9.98;;;1.70;99.90;;;;;;5032662;28;20038;-79
2021/01/09 08:16:37;;;;;;;18.85;9.73;;;1.70;99.90;;;;;;5032518;28;20394;-80
2021/01/09 08:19:20;;;;;;;19.65;9.68;;;1.80;99.90;;;;;;5028877;28;20487;-77
2021/01/09 08:21:52;;;;;;;19.40;10.30;;;2.00;99.80;;;;;;5027851;28;20061;-82
2021/01/09 08:24:26;;;;;;;18.10;9.20;;;2.00;99.60;;;;;;5021489;28;20358;-79
2021/01/09 08:26:53;;;;;;;19.48;9.75;;;2.00;99.70;;;;;;5026911;28;20053;-78
2021/01/09 08:29:26;;;;;;;16.90;8.57;;;2.00;99.70;;;;;;5027617;28;20048;-80
2021/01/09 08:31:53;;;;;;;19.02;10.25;;;2.10;99.30;;;;;;5041201;28;20300;-76
2021/01/09 08:34:19;;;;;;;20.88;9.90;;;2.20;99.40;;;;;;5027879;28;20042;-79
2021/01/09 08:36:48;;;;;;;18.60;10.65;;;2.10;99.30;;;;;;5027145;28;20043;-80
2021/01/09 08:39:13;;;;;;;16.45;9.02;;;2.10;99.30;;;;;;5029773;28;20045;-80
2021/01/09 08:41:41;;;;;;;18.30;9.13;;;2.10;99.30;;;;;;5031921;28;20099;-80
2021/01/09 08:44:12;;;;;;;16.73;9.20;;;2.20;99.90;;;;;;5025639;28;20033;-81
2021/01/09 08:46:39;;;;;;;15.48;8.68;;;2.30;99.80;;;;;;5027200;28;20514;-79
2021/01/09 08:49:06;;;;;;;18.52;10.05;;;2.30;99.10;;;;;;5025942;28;20438;-79
2021/01/09 08:51:34;;;;;;;17.42;9.95;;;2.30;99.10;;;;;;5027264;28;20045;-81
2021/01/09 08:54:05;;;;;;;18.23;9.30;;;2.30;98.80;;;;;;5046893;28;20092;-78
2021/01/09 08:56:32;;;;;;;17.50;9.18;;;2.20;99.20;;;;;;5037391;28;20052;-79
2021/01/09 08:59:06;;;;;;;19.02;9.43;;;2.20;99.60;;;;;;5020139;28;20152;-79
2021/01/09 09:01:45;;;;;;;19.02;9.38;;;2.20;99.10;;;;;;5029547;28;20045;-80
2021/01/09 09:04:12;;;;;;;17.50;9.65;;;1.60;98.90;;;;;;5029065;28;20041;-79
2021/01/09 09:06:42;;;;;;;18.02;9.60;;;2.20;99.00;;;;;;5032646;28;20045;-78
2021/01/09 09:09:08;;;;;;;17.90;9.20;;;2.20;99.20;;;;;;5030049;28;20055;-81
2021/01/09 09:11:34;;;;;;;18.08;9.35;;;2.30;99.20;;;;;;5034604;28;20049;-81
2021/01/09 09:14:07;;;;;;;18.13;10.20;;;2.30;98.80;;;;;;5033084;28;20112;-80
2021/01/09 09:16:38;;;;;;;17.92;9.60;;;2.30;98.90;;;;;;5035459;28;20033;-81
2021/01/09 09:19:18;;;;;;;18.52;9.50;;;2.30;98.60;;;;;;5031832;28;20561;-82
2021/01/09 09:21:46;;;;;;;18.73;9.95;;;2.40;98.60;;;;;;5026791;28;20040;-79
2021/01/09 09:24:12;;;;;;;16.63;9.23;;;2.40;98.80;;;;;;5031048;28;20026;-81
2021/01/09 09:26:38;;;;;;;17.83;9.93;;;2.40;98.30;;;;;;5033503;28;20120;-80
2021/01/09 09:29:04;;;;;;;15.77;8.88;;;2.40;98.40;;;;;;5026969;28;20046;-77
2021/01/09 09:31:32;;;;;;;19.02;9.65;;;2.40;98.20;;;;;;5034059;28;20030;-80
2021/01/09 09:34:10;;;;;;;20.83;9.20;;;2.40;99.10;;;;;;5035195;28;20521;-81
2021/01/09 09:36:39;;;;;;;17.45;9.73;;;2.50;98.50;;;;;;5043757;28;20072;-80
2021/01/09 09:39:16;;;;;;;16.02;8.93;;;2.50;98.30;;;;;;5031868;28;20021;-80
2021/01/09 09:41:58;;;;;;;17.55;9.45;;;2.50;98.30;;;;;;5029204;28;20037;-82
2021/01/09 09:44:44;;;;;;;16.90;8.68;;;2.60;98.50;;;;;;5029701;28;20402;-83
2021/01/09 09:47:27;;;;;;;16.67;9.70;;;2.60;97.90;;;;;;5027235;28;20399;-80
2021/01/09 09:49:58;;;;;;;15.00;8.32;;;2.70;98.20;;;;;;5049182;28;20456;-82
2021/01/09 09:52:24;;;;;;;14.02;8.55;;;2.80;97.50;;;;;;5032895;28;20077;-79
2021/01/09 09:55:04;;;;;;;15.88;8.38;;;2.80;97.40;;;;;;5036957;28;20068;-78
2021/01/09 09:57:30;;;;;;;16.67;8.38;;;2.80;97.50;;;;;;5039786;28;20049;-76
2021/01/09 10:00:06;;;;;;;14.32;8.40;;;3.10;96.90;;;;;;5031039;28;20044;-80
2021/01/09 10:02:32;;;;;;;14.82;7.63;;;3.00;96.80;;;;;;5030472;28;20051;-78
2021/01/09 10:04:57;;;;;;;15.52;8.68;;;3.10;96.90;;;;;;5016208;28;20041;-78
2021/01/09 10:07:24;;;;;;;14.10;8.00;;;3.20;96.30;;;;;;5041747;28;20523;-79
2021/01/09 10:09:50;;;;;;;14.10;8.02;;;3.20;96.40;;;;;;5032965;28;20069;-78
2021/01/09 10:12:16;;;;;;;16.20;8.55;;;3.20;96.30;;;;;;5020360;28;20051;-81
2021/01/09 10:14:42;;;;;;;16.88;9.02;;;3.10;96.60;;;;;;5029360;28;20034;-77
2021/01/09 10:17:17;;;;;;;16.25;8.07;;;3.10;97.00;;;;;;5032401;28;20112;-79
2021/01/09 10:19:43;;;;;;;17.20;8.40;;;3.20;96.70;;;;;;5026860;28;20040;-79
2021/01/09 10:22:09;;;;;;;14.10;8.32;;;3.20;97.00;;;;;;5028523;28;20046;-78
2021/01/09 10:24:35;;;;;;;17.00;7.72;;;3.20;96.90;;;;;;5031705;28;20067;-79
2021/01/09 10:27:04;;;;;;;16.00;7.90;;;3.30;96.10;;;;;;5021599;28;20048;-80
2021/01/09 10:29:30;;;;;;;11.80;7.07;;;3.30;96.20;;;;;;5029940;28;20857;-81
2021/01/09 10:31:55;;;;;;;13.25;7.03;;;3.40;95.90;;;;;;5034797;28;20048;-81
2021/01/09 10:34:21;;;;;;;13.35;7.40;;;3.40;95.60;;;;;;5030879;28;20105;-80
2021/01/09 10:36:47;;;;;;;11.98;7.35;;;3.60;95.00;;;;;;5018242;28;20152;-81
2021/01/09 10:39:12;;;;;;;12.70;7.10;;;3.50;94.70;;;;;;5020787;28;20033;-80
2021/01/09 10:41:39;;;;;;;13.90;7.70;;;3.40;95.30;;;;;;5029914;28;20468;-80
2021/01/09 10:44:05;;;;;;;14.20;8.13;;;3.40;96.10;;;;;;5024880;28;20026;-79
2021/01/09 10:46:32;;;;;;;15.13;7.95;;;3.40;96.10;;;;;;5028125;28;20028;-81
2021/01/09 10:48:58;;;;;;;14.63;7.85;;;3.50;96.00;;;;;;5014924;28;20075;-80
2021/01/09 10:51:26;;;;;;;12.05;6.85;;;2.90;95.50;;;;;;5034177;28;20596;-78
2021/01/09 10:53:53;;;;;;;14.10;7.05;;;3.60;95.30;;;;;;5027301;28;20034;-85
2021/01/09 10:56:19;;;;;;;12.82;7.60;;;3.70;94.60;;;;;;5029290;28;20033;-80
2021/01/09 10:58:45;;;;;;;14.05;7.43;;;3.60;95.30;;;;;;4992680;28;20049;-80
2021/01/09 11:01:11;;;;;;;15.25;8.15;;;3.60;95.70;;;;;;5008675;28;20042;-80
2021/01/09 11:03:41;;;;;;;13.68;7.28;;;3.60;95.70;;;;;;5028580;28;20044;-81
2021/01/09 11:06:06;;;;;;;14.50;7.72;;;3.60;95.00;;;;;;5026883;28;20025;-85
2021/01/09 11:08:32;;;;;;;15.27;7.97;;;3.60;95.20;;;;;;5013265;28;20040;-81
2021/01/09 11:10:57;;;;;;;13.73;7.78;;;3.60;94.90;;;;;;5031381;28;20455;-82
2021/01/09 11:13:23;;;;;;;11.73;7.15;;;3.70;95.00;;;;;;5028961;28;20037;-82
2021/01/09 11:15:51;;;;;;;12.52;7.57;;;3.70;94.40;;;;;;5007777;28;20549;-81
2021/01/09 11:18:17;;;;;;;13.98;7.75;;;3.60;94.80;;;;;;5026122;28;20398;-80
2021/01/09 11:20:52;;;;;;;16.33;7.10;;;3.60;95.10;;;;;;5025835;28;20045;-80
2021/01/09 11:23:21;;;;;;;12.93;6.97;;;3.60;95.30;;;;;;5029631;28;20549;-81
2021/01/09 11:25:48;;;;;;;12.52;6.70;;;3.50;95.00;;;;;;5026908;28;20128;-80
2021/01/09 11:28:15;;;;;;;14.65;7.68;;;3.60;94.50;;;;;;5019668;28;20084;-81
2021/01/09 11:30:43;;;;;;;14.65;6.45;;;4.20;95.50;;;;;;5032883;28;20061;-82
2021/01/09 11:33:11;;;;;;;12.18;6.95;;;3.50;95.30;;;;;;5023105;28;20049;-79
2021/01/09 11:35:39;;;;;;;13.48;7.43;;;3.60;94.60;;;;;;5024655;28;20411;-80
2021/01/09 11:38:05;;;;;;;14.18;7.65;;;3.60;94.60;;;;;;5033920;28;20047;-80
2021/01/09 11:40:34;;;;;;;11.75;6.47;;;3.50;94.60;;;;;;5036995;28;20675;-80
2021/01/09 11:42:59;;;;;;;12.35;6.80;;;3.50;94.80;;;;;;5022498;28;20395;-79
2021/01/09 11:45:25;;;;;;;11.20;6.50;;;3.40;95.00;;;;;;5023410;28;20033;-80
2021/01/09 11:47:51;;;;;;;13.10;7.20;;;3.40;94.70;;;;;;5027720;28;20050;-78
2021/01/09 11:50:17;;;;;;;11.13;6.15;;;3.40;94.40;;;;;;5025929;28;20383;-77
2021/01/09 11:52:43;;;;;;;12.65;5.95;;;3.40;94.90;;;;;;5024433;28;20127;-78
2021/01/09 11:55:10;;;;;;;10.23;5.90;;;3.40;95.20;;;;;;5028654;28;20052;-80
2021/01/09 11:57:35;;;;;;;11.57;5.43;;;3.40;94.60;;;;;;5024439;28;20049;-78
2021/01/09 12:00:04;;;;;;;11.07;5.95;;;3.50;94.20;;;;;;5021124;28;20029;-78
2021/01/09 12:02:30;;;;;;;10.13;5.70;;;3.70;93.80;;;;;;5026179;28;20022;-79
2021/01/09 12:04:57;;;;;;;11.35;6.53;;;3.60;94.10;;;;;;5022691;28;20030;-80
2021/01/09 12:07:23;;;;;;;10.55;5.60;;;3.60;94.20;;;;;;5029689;28;20044;-78
2021/01/09 12:09:50;;;;;;;10.55;5.43;;;3.70;93.80;;;;;;5021843;28;20403;-80
2021/01/09 12:12:16;;;;;;;10.23;5.70;;;3.90;92.90;;;;;;5025162;28;20046;-80
2021/01/09 12:14:42;;;;;;;8.75;4.35;;;4.00;92.50;;;;;;5023653;28;20022;-79
2021/01/09 12:17:10;;;;;;;8.98;4.75;;;4.10;91.20;;;;;;5009721;28;20038;-78
2021/01/09 12:19:35;;;;;;;7.82;4.47;;;4.10;91.40;;;;;;5026143;28;20091;-79
2021/01/09 12:22:01;;;;;;;7.07;3.88;;;4.30;90.60;;;;;;5021870;28;20049;-79
2021/01/09 12:24:27;;;;;;;5.85;3.60;;;4.40;88.80;;;;;;5027995;28;20147;-78
2021/01/09 12:26:58;;;;;;;5.97;3.00;;;4.50;86.60;;;;;;5050671;28;20037;-78
2021/01/09 12:29:24;;;;;;;5.93;3.45;;;4.40;86.80;;;;;;5031320;28;20058;-79
2021/01/09 12:31:52;;;;;;;7.10;3.85;;;4.30;86.80;;;;;;5031008;28;20042;-78
2021/01/09 12:34:18;;;;;;;6.35;3.63;;;4.30;87.40;;;;;;5004243;28;20061;-77
2021/01/09 12:36:48;;;;;;;7.25;4.10;;;4.10;88.10;;;;;;4998877;28;20467;-80
2021/01/09 12:39:14;;;;;;;11.15;4.30;;;4.00;88.60;;;;;;5028841;28;20041;-78
2021/01/09 12:41:40;;;;;;;6.57;3.92;;;4.00;89.30;;;;;;5029285;28;20533;-78
2021/01/09 12:44:10;;;;;;;5.68;3.78;;;3.90;88.80;;;;;;5026212;28;20084;-79
2021/01/09 12:46:42;;;;;;;8.77;4.40;;;3.80;89.50;;;;;;5031747;28;20040;-77
2021/01/09 12:49:12;;;;;;;8.10;4.53;;;3.70;90.10;;;;;;5026717;28;20033;-78